sensor_id;sensor_type;location;lat;lon;timestamp;P1;durP1;ratioP1;P2;durP2;ratioP2
3712;SDS011;1872;51.406;6.856;2022-07-12T00:01:52;4.37;;;3.97;;
3712;SDS011;1872;51.406;6.856;2022-07-12T00:04:18;3.87;;;3.43;;
3712;SDS011;1872;51.406;6.856;2022-07-12T00:06:44;4.47;;;4.10;;
3712;SDS011;1872;51.406;6.856;2022-07-12T00:09:09;3.80;;;3.60;;
3712;SDS011;1872;51.406;6.856;2022-07-12T00:11:35;3.60;;;3.30;;
3712;SDS011;1872;51.406;6.856;2022-07-12T00:14:02;4.90;;;3.50;;
3712;SDS011;1872;51.406;6.856;2022-07-12T00:16:28;4.07;;;3.57;;
3712;SDS011;1872;51.406;6.856;2022-07-12T00:18:54;4.50;;;3.83;;
3712;SDS011;1872;51.406;6.856;2022-07-12T00:21:20;3.70;;;3.33;;
3712;SDS011;1872;51.406;6.856;2022-07-12T00:23:45;3.43;;;3.13;;
3712;SDS011;1872;51.406;6.856;2022-07-12T00:26:11;3.20;;;3.00;;
3712;SDS011;1872;51.406;6.856;2022-07-12T00:28:37;3.73;;;3.43;;
3712;SDS011;1872;51.406;6.856;2022-07-12T00:31:03;3.87;;;3.57;;
3712;SDS011;1872;51.406;6.856;2022-07-12T00:33:29;3.97;;;3.70;;
3712;SDS011;1872;51.406;6.856;2022-07-12T00:35:54;3.40;;;3.10;;
3712;SDS011;1872;51.406;6.856;2022-07-12T00:38:22;3.33;;;3.07;;
3712;SDS011;1872;51.406;6.856;2022-07-12T00:40:48;3.97;;;3.67;;
3712;SDS011;1872;51.406;6.856;2022-07-12T00:43:17;3.37;;;3.17;;
3712;SDS011;1872;51.406;6.856;2022-07-12T00:45:42;4.30;;;4.00;;
3712;SDS011;1872;51.406;6.856;2022-07-12T00:48:08;4.00;;;3.70;;
3712;SDS011;1872;51.406;6.856;2022-07-12T00:50:35;4.10;;;3.80;;
3712;SDS011;1872;51.406;6.856;2022-07-12T00:53:01;3.77;;;3.47;;
3712;SDS011;1872;51.406;6.856;2022-07-12T00:55:27;4.60;;;3.90;;
3712;SDS011;1872;51.406;6.856;2022-07-12T00:57:52;3.83;;;3.53;;
3712;SDS011;1872;51.406;6.856;2022-07-12T01:00:27;3.73;;;3.43;;
3712;SDS011;1872;51.406;6.856;2022-07-12T01:02:54;3.53;;;3.33;;
3712;SDS011;1872;51.406;6.856;2022-07-12T01:05:21;4.50;;;4.20;;
3712;SDS011;1872;51.406;6.856;2022-07-12T01:07:48;4.43;;;4.10;;
3712;SDS011;1872;51.406;6.856;2022-07-12T01:10:15;4.87;;;4.40;;
3712;SDS011;1872;51.406;6.856;2022-07-12T01:12:40;4.03;;;3.73;;
3712;SDS011;1872;51.406;6.856;2022-07-12T01:15:07;3.90;;;3.57;;
3712;SDS011;1872;51.406;6.856;2022-07-12T01:17:34;3.83;;;3.53;;
3712;SDS011;1872;51.406;6.856;2022-07-12T01:20:00;4.10;;;3.80;;
3712;SDS011;1872;51.406;6.856;2022-07-12T01:22:27;4.70;;;4.30;;
3712;SDS011;1872;51.406;6.856;2022-07-12T01:24:56;3.73;;;3.43;;
3712;SDS011;1872;51.406;6.856;2022-07-12T01:27:22;4.00;;;3.70;;
3712;SDS011;1872;51.406;6.856;2022-07-12T01:29:48;4.70;;;4.30;;
3712;SDS011;1872;51.406;6.856;2022-07-12T01:32:14;4.70;;;4.37;;
3712;SDS011;1872;51.406;6.856;2022-07-12T01:37:22;4.37;;;3.97;;
3712;SDS011;1872;51.406;6.856;2022-07-12T01:39:52;4.47;;;4.00;;
3712;SDS011;1872;51.406;6.856;2022-07-12T01:42:19;4.97;;;4.47;;
3712;SDS011;1872;51.406;6.856;2022-07-12T01:44:46;5.33;;;4.40;;
3712;SDS011;1872;51.406;6.856;2022-07-12T01:47:13;4.90;;;4.53;;
3712;SDS011;1872;51.406;6.856;2022-07-12T01:49:38;4.77;;;4.30;;
3712;SDS011;1872;51.406;6.856;2022-07-12T01:52:04;4.67;;;4.27;;
3712;SDS011;1872;51.406;6.856;2022-07-12T01:54:32;4.70;;;4.30;;
3712;SDS011;1872;51.406;6.856;2022-07-12T01:56:58;4.47;;;4.17;;
3712;SDS011;1872;51.406;6.856;2022-07-12T01:59:24;5.27;;;4.87;;
3712;SDS011;1872;51.406;6.856;2022-07-12T02:01:50;4.70;;;4.40;;
3712;SDS011;1872;51.406;6.856;2022-07-12T02:04:16;4.90;;;4.30;;
3712;SDS011;1872;51.406;6.856;2022-07-12T02:06:43;4.60;;;4.20;;
3712;SDS011;1872;51.406;6.856;2022-07-12T02:09:09;5.10;;;4.70;;
3712;SDS011;1872;51.406;6.856;2022-07-12T02:11:39;3.90;;;3.60;;
3712;SDS011;1872;51.406;6.856;2022-07-12T02:14:07;3.93;;;3.63;;
3712;SDS011;1872;51.406;6.856;2022-07-12T02:16:33;7.97;;;4.07;;
3712;SDS011;1872;51.406;6.856;2022-07-12T02:18:59;4.80;;;4.10;;
3712;SDS011;1872;51.406;6.856;2022-07-12T02:21:25;5.63;;;5.23;;
3712;SDS011;1872;51.406;6.856;2022-07-12T02:23:50;5.30;;;4.83;;
3712;SDS011;1872;51.406;6.856;2022-07-12T02:26:16;5.20;;;4.80;;
3712;SDS011;1872;51.406;6.856;2022-07-12T02:28:42;5.37;;;4.90;;
3712;SDS011;1872;51.406;6.856;2022-07-12T02:31:08;5.50;;;5.10;;
3712;SDS011;1872;51.406;6.856;2022-07-12T02:33:34;5.10;;;4.67;;
3712;SDS011;1872;51.406;6.856;2022-07-12T02:36:00;5.87;;;5.37;;
3712;SDS011;1872;51.406;6.856;2022-07-12T02:38:26;5.53;;;5.03;;
3712;SDS011;1872;51.406;6.856;2022-07-12T02:40:51;4.93;;;4.43;;
3712;SDS011;1872;51.406;6.856;2022-07-12T02:43:23;5.50;;;5.00;;
3712;SDS011;1872;51.406;6.856;2022-07-12T02:45:54;4.40;;;4.00;;
3712;SDS011;1872;51.406;6.856;2022-07-12T02:48:27;5.07;;;4.57;;
3712;SDS011;1872;51.406;6.856;2022-07-12T02:50:52;4.90;;;4.43;;
3712;SDS011;1872;51.406;6.856;2022-07-12T02:53:18;4.53;;;4.23;;
3712;SDS011;1872;51.406;6.856;2022-07-12T02:55:44;4.33;;;4.03;;
3712;SDS011;1872;51.406;6.856;2022-07-12T02:58:09;5.50;;;5.00;;
3712;SDS011;1872;51.406;6.856;2022-07-12T03:00:37;4.73;;;4.37;;
3712;SDS011;1872;51.406;6.856;2022-07-12T03:03:04;5.73;;;5.17;;
3712;SDS011;1872;51.406;6.856;2022-07-12T03:05:32;5.40;;;5.00;;
3712;SDS011;1872;51.406;6.856;2022-07-12T03:08:04;6.30;;;5.70;;
3712;SDS011;1872;51.406;6.856;2022-07-12T03:10:30;5.73;;;5.17;;
3712;SDS011;1872;51.406;6.856;2022-07-12T03:12:57;6.10;;;5.60;;
3712;SDS011;1872;51.406;6.856;2022-07-12T03:15:27;5.20;;;4.80;;
3712;SDS011;1872;51.406;6.856;2022-07-12T03:17:54;5.57;;;5.00;;
3712;SDS011;1872;51.406;6.856;2022-07-12T03:20:20;6.53;;;6.03;;
3712;SDS011;1872;51.406;6.856;2022-07-12T03:22:46;6.00;;;5.50;;
3712;SDS011;1872;51.406;6.856;2022-07-12T03:25:15;5.53;;;5.03;;
3712;SDS011;1872;51.406;6.856;2022-07-12T03:27:41;5.50;;;5.00;;
3712;SDS011;1872;51.406;6.856;2022-07-12T03:30:10;5.20;;;4.77;;
3712;SDS011;1872;51.406;6.856;2022-07-12T03:32:36;5.13;;;4.73;;
3712;SDS011;1872;51.406;6.856;2022-07-12T03:35:02;4.67;;;4.27;;
3712;SDS011;1872;51.406;6.856;2022-07-12T03:37:38;5.70;;;5.10;;
3712;SDS011;1872;51.406;6.856;2022-07-12T03:40:04;4.60;;;4.23;;
3712;SDS011;1872;51.406;6.856;2022-07-12T03:42:30;5.43;;;4.80;;
3712;SDS011;1872;51.406;6.856;2022-07-12T03:44:58;4.70;;;4.30;;
3712;SDS011;1872;51.406;6.856;2022-07-12T03:47:24;5.10;;;4.70;;
3712;SDS011;1872;51.406;6.856;2022-07-12T03:49:49;5.60;;;5.10;;
3712;SDS011;1872;51.406;6.856;2022-07-12T03:52:15;5.53;;;4.87;;
3712;SDS011;1872;51.406;6.856;2022-07-12T03:54:40;5.37;;;4.90;;
3712;SDS011;1872;51.406;6.856;2022-07-12T03:57:06;5.00;;;4.60;;
3712;SDS011;1872;51.406;6.856;2022-07-12T03:59:41;5.00;;;4.60;;
3712;SDS011;1872;51.406;6.856;2022-07-12T04:02:10;4.77;;;4.33;;
3712;SDS011;1872;51.406;6.856;2022-07-12T04:04:37;5.10;;;4.70;;
3712;SDS011;1872;51.406;6.856;2022-07-12T04:07:03;5.20;;;4.70;;
3712;SDS011;1872;51.406;6.856;2022-07-12T04:09:29;4.83;;;4.30;;
3712;SDS011;1872;51.406;6.856;2022-07-12T04:11:55;4.97;;;4.57;;
3712;SDS011;1872;51.406;6.856;2022-07-12T04:14:23;6.00;;;5.50;;
3712;SDS011;1872;51.406;6.856;2022-07-12T04:16:49;5.73;;;4.90;;
3712;SDS011;1872;51.406;6.856;2022-07-12T04:19:14;4.63;;;4.33;;
3712;SDS011;1872;51.406;6.856;2022-07-12T04:21:45;4.90;;;4.40;;
3712;SDS011;1872;51.406;6.856;2022-07-12T04:24:11;9.37;;;4.57;;
3712;SDS011;1872;51.406;6.856;2022-07-12T04:26:36;6.13;;;5.53;;
3712;SDS011;1872;51.406;6.856;2022-07-12T04:29:02;5.20;;;4.50;;
3712;SDS011;1872;51.406;6.856;2022-07-12T04:31:28;5.60;;;5.10;;
3712;SDS011;1872;51.406;6.856;2022-07-12T04:33:53;5.77;;;5.27;;
3712;SDS011;1872;51.406;6.856;2022-07-12T04:36:19;5.37;;;4.97;;
3712;SDS011;1872;51.406;6.856;2022-07-12T04:38:44;5.17;;;4.77;;
3712;SDS011;1872;51.406;6.856;2022-07-12T04:41:10;6.20;;;5.70;;
3712;SDS011;1872;51.406;6.856;2022-07-12T04:43:36;7.17;;;5.47;;
3712;SDS011;1872;51.406;6.856;2022-07-12T04:46:10;5.70;;;5.20;;
3712;SDS011;1872;51.406;6.856;2022-07-12T04:48:36;6.13;;;5.63;;
3712;SDS011;1872;51.406;6.856;2022-07-12T04:51:02;8.87;;;5.77;;
3712;SDS011;1872;51.406;6.856;2022-07-12T04:53:28;8.03;;;5.87;;
3712;SDS011;1872;51.406;6.856;2022-07-12T04:55:54;7.10;;;6.40;;
3712;SDS011;1872;51.406;6.856;2022-07-12T04:58:20;6.73;;;6.03;;
3712;SDS011;1872;51.406;6.856;2022-07-12T05:00:46;8.30;;;7.50;;
3712;SDS011;1872;51.406;6.856;2022-07-12T05:03:12;6.73;;;6.13;;
3712;SDS011;1872;51.406;6.856;2022-07-12T05:05:38;6.93;;;6.10;;
3712;SDS011;1872;51.406;6.856;2022-07-12T05:08:04;6.27;;;5.67;;
3712;SDS011;1872;51.406;6.856;2022-07-12T05:10:29;5.97;;;5.47;;
3712;SDS011;1872;51.406;6.856;2022-07-12T05:12:55;6.13;;;5.47;;
3712;SDS011;1872;51.406;6.856;2022-07-12T05:15:23;6.90;;;6.23;;
3712;SDS011;1872;51.406;6.856;2022-07-12T05:17:49;7.20;;;6.60;;
3712;SDS011;1872;51.406;6.856;2022-07-12T05:20:17;5.93;;;5.43;;
3712;SDS011;1872;51.406;6.856;2022-07-12T05:22:43;6.70;;;6.10;;
3712;SDS011;1872;51.406;6.856;2022-07-12T05:25:09;7.53;;;6.87;;
3712;SDS011;1872;51.406;6.856;2022-07-12T05:27:35;7.57;;;6.87;;
3712;SDS011;1872;51.406;6.856;2022-07-12T05:30:01;8.03;;;7.20;;
3712;SDS011;1872;51.406;6.856;2022-07-12T05:32:28;6.80;;;6.20;;
3712;SDS011;1872;51.406;6.856;2022-07-12T05:34:53;7.03;;;6.33;;
3712;SDS011;1872;51.406;6.856;2022-07-12T05:37:19;6.90;;;6.30;;
3712;SDS011;1872;51.406;6.856;2022-07-12T05:39:45;5.73;;;5.23;;
3712;SDS011;1872;51.406;6.856;2022-07-12T05:42:11;7.60;;;6.90;;
3712;SDS011;1872;51.406;6.856;2022-07-12T05:44:36;7.47;;;6.10;;
3712;SDS011;1872;51.406;6.856;2022-07-12T05:47:02;7.23;;;6.53;;
3712;SDS011;1872;51.406;6.856;2022-07-12T05:49:28;9.30;;;8.40;;
3712;SDS011;1872;51.406;6.856;2022-07-12T05:51:54;6.87;;;6.07;;
3712;SDS011;1872;51.406;6.856;2022-07-12T05:54:38;7.43;;;6.77;;
3712;SDS011;1872;51.406;6.856;2022-07-12T05:57:03;8.80;;;7.17;;
3712;SDS011;1872;51.406;6.856;2022-07-12T05:59:32;9.07;;;8.10;;
3712;SDS011;1872;51.406;6.856;2022-07-12T06:02:00;11.10;;;9.00;;
3712;SDS011;1872;51.406;6.856;2022-07-12T06:04:28;8.73;;;7.40;;
3712;SDS011;1872;51.406;6.856;2022-07-12T06:06:53;9.33;;;7.90;;
3712;SDS011;1872;51.406;6.856;2022-07-12T06:09:20;9.73;;;8.20;;
3712;SDS011;1872;51.406;6.856;2022-07-12T06:11:48;10.07;;;8.80;;
3712;SDS011;1872;51.406;6.856;2022-07-12T06:14:13;10.50;;;8.53;;
3712;SDS011;1872;51.406;6.856;2022-07-12T06:16:39;12.17;;;9.37;;
3712;SDS011;1872;51.406;6.856;2022-07-12T06:19:05;10.23;;;8.30;;
3712;SDS011;1872;51.406;6.856;2022-07-12T06:21:30;10.43;;;8.63;;
3712;SDS011;1872;51.406;6.856;2022-07-12T06:23:56;9.13;;;8.23;;
3712;SDS011;1872;51.406;6.856;2022-07-12T06:26:22;10.20;;;8.53;;
3712;SDS011;1872;51.406;6.856;2022-07-12T06:28:50;8.40;;;7.50;;
3712;SDS011;1872;51.406;6.856;2022-07-12T06:31:15;10.07;;;9.07;;
3712;SDS011;1872;51.406;6.856;2022-07-12T06:33:41;10.97;;;8.83;;
3712;SDS011;1872;51.406;6.856;2022-07-12T06:36:07;9.37;;;8.23;;
3712;SDS011;1872;51.406;6.856;2022-07-12T06:38:32;9.03;;;8.07;;
3712;SDS011;1872;51.406;6.856;2022-07-12T06:40:58;8.20;;;7.33;;
3712;SDS011;1872;51.406;6.856;2022-07-12T06:43:24;11.83;;;7.73;;
3712;SDS011;1872;51.406;6.856;2022-07-12T06:45:50;8.33;;;7.33;;
3712;SDS011;1872;51.406;6.856;2022-07-12T06:48:15;8.47;;;7.33;;
3712;SDS011;1872;51.406;6.856;2022-07-12T06:50:41;11.30;;;7.07;;
3712;SDS011;1872;51.406;6.856;2022-07-12T06:53:07;8.30;;;7.47;;
3712;SDS011;1872;51.406;6.856;2022-07-12T06:55:33;8.60;;;7.80;;
3712;SDS011;1872;51.406;6.856;2022-07-12T06:57:58;7.70;;;6.97;;
3712;SDS011;1872;51.406;6.856;2022-07-12T07:00:24;8.93;;;8.00;;
3712;SDS011;1872;51.406;6.856;2022-07-12T07:02:50;10.00;;;8.90;;
3712;SDS011;1872;51.406;6.856;2022-07-12T07:05:15;10.60;;;8.40;;
3712;SDS011;1872;51.406;6.856;2022-07-12T07:07:42;8.53;;;7.67;;
3712;SDS011;1872;51.406;6.856;2022-07-12T07:10:10;8.20;;;7.40;;
3712;SDS011;1872;51.406;6.856;2022-07-12T07:12:36;8.70;;;7.80;;
3712;SDS011;1872;51.406;6.856;2022-07-12T07:15:02;7.80;;;7.00;;
3712;SDS011;1872;51.406;6.856;2022-07-12T07:17:33;6.70;;;6.00;;
3712;SDS011;1872;51.406;6.856;2022-07-12T07:20:01;8.50;;;7.10;;
3712;SDS011;1872;51.406;6.856;2022-07-12T07:22:34;8.13;;;7.30;;
3712;SDS011;1872;51.406;6.856;2022-07-12T07:24:59;7.10;;;6.30;;
3712;SDS011;1872;51.406;6.856;2022-07-12T07:27:25;7.20;;;6.03;;
3712;SDS011;1872;51.406;6.856;2022-07-12T07:29:51;7.40;;;6.70;;
3712;SDS011;1872;51.406;6.856;2022-07-12T07:32:35;6.50;;;5.53;;
3712;SDS011;1872;51.406;6.856;2022-07-12T07:35:01;7.90;;;7.10;;
3712;SDS011;1872;51.406;6.856;2022-07-12T07:37:27;6.03;;;5.53;;
3712;SDS011;1872;51.406;6.856;2022-07-12T07:39:53;6.30;;;5.80;;
3712;SDS011;1872;51.406;6.856;2022-07-12T07:42:18;6.10;;;5.53;;
3712;SDS011;1872;51.406;6.856;2022-07-12T07:44:44;6.73;;;5.77;;
3712;SDS011;1872;51.406;6.856;2022-07-12T07:47:09;6.00;;;5.47;;
3712;SDS011;1872;51.406;6.856;2022-07-12T07:49:35;6.80;;;6.20;;
3712;SDS011;1872;51.406;6.856;2022-07-12T07:52:01;6.80;;;5.47;;
3712;SDS011;1872;51.406;6.856;2022-07-12T07:54:34;6.63;;;6.00;;
3712;SDS011;1872;51.406;6.856;2022-07-12T07:57:00;5.87;;;5.30;;
3712;SDS011;1872;51.406;6.856;2022-07-12T07:59:25;6.80;;;5.60;;
3712;SDS011;1872;51.406;6.856;2022-07-12T08:01:51;5.47;;;5.07;;
3712;SDS011;1872;51.406;6.856;2022-07-12T08:04:20;5.60;;;5.10;;
3712;SDS011;1872;51.406;6.856;2022-07-12T08:06:49;6.93;;;5.00;;
3712;SDS011;1872;51.406;6.856;2022-07-12T08:09:15;5.10;;;4.60;;
3712;SDS011;1872;51.406;6.856;2022-07-12T08:11:41;5.63;;;5.07;;
3712;SDS011;1872;51.406;6.856;2022-07-12T08:14:08;4.87;;;3.83;;
3712;SDS011;1872;51.406;6.856;2022-07-12T08:16:35;4.87;;;4.40;;
3712;SDS011;1872;51.406;6.856;2022-07-12T08:19:01;4.33;;;4.00;;
3712;SDS011;1872;51.406;6.856;2022-07-12T08:21:27;5.27;;;4.43;;
3712;SDS011;1872;51.406;6.856;2022-07-12T08:23:52;5.83;;;5.23;;
3712;SDS011;1872;51.406;6.856;2022-07-12T08:26:19;4.87;;;4.33;;
3712;SDS011;1872;51.406;6.856;2022-07-12T08:28:46;5.07;;;4.53;;
3712;SDS011;1872;51.406;6.856;2022-07-12T08:31:12;5.17;;;4.37;;
3712;SDS011;1872;51.406;6.856;2022-07-12T08:33:40;4.33;;;3.93;;
3712;SDS011;1872;51.406;6.856;2022-07-12T08:36:07;6.43;;;5.27;;
3712;SDS011;1872;51.406;6.856;2022-07-12T08:38:35;4.67;;;4.27;;
3712;SDS011;1872;51.406;6.856;2022-07-12T08:41:03;4.63;;;4.20;;
3712;SDS011;1872;51.406;6.856;2022-07-12T08:43:29;4.40;;;4.10;;
3712;SDS011;1872;51.406;6.856;2022-07-12T08:46:04;3.77;;;3.47;;
3712;SDS011;1872;51.406;6.856;2022-07-12T08:48:31;3.70;;;3.40;;
3712;SDS011;1872;51.406;6.856;2022-07-12T08:51:08;4.03;;;3.73;;
3712;SDS011;1872;51.406;6.856;2022-07-12T08:53:35;3.43;;;3.13;;
3712;SDS011;1872;51.406;6.856;2022-07-12T08:56:01;4.33;;;3.93;;
3712;SDS011;1872;51.406;6.856;2022-07-12T08:58:28;5.03;;;4.27;;
3712;SDS011;1872;51.406;6.856;2022-07-12T09:00:56;3.70;;;3.40;;
3712;SDS011;1872;51.406;6.856;2022-07-12T09:03:22;10.40;;;9.70;;
3712;SDS011;1872;51.406;6.856;2022-07-12T09:05:48;3.60;;;3.40;;
3712;SDS011;1872;51.406;6.856;2022-07-12T09:08:23;3.23;;;2.87;;
3712;SDS011;1872;51.406;6.856;2022-07-12T09:10:58;3.10;;;2.90;;
3712;SDS011;1872;51.406;6.856;2022-07-12T09:16:14;2.93;;;2.70;;
3712;SDS011;1872;51.406;6.856;2022-07-12T09:18:42;4.00;;;3.60;;
3712;SDS011;1872;51.406;6.856;2022-07-12T09:21:11;3.40;;;3.10;;
3712;SDS011;1872;51.406;6.856;2022-07-12T09:23:53;3.93;;;3.63;;
3712;SDS011;1872;51.406;6.856;2022-07-12T09:26:21;3.47;;;3.20;;
3712;SDS011;1872;51.406;6.856;2022-07-12T09:28:50;4.10;;;3.10;;
3712;SDS011;1872;51.406;6.856;2022-07-12T09:31:17;3.90;;;3.40;;
3712;SDS011;1872;51.406;6.856;2022-07-12T09:33:58;3.47;;;3.27;;
3712;SDS011;1872;51.406;6.856;2022-07-12T09:36:53;4.17;;;3.40;;
3712;SDS011;1872;51.406;6.856;2022-07-12T09:39:21;3.27;;;3.07;;
3712;SDS011;1872;51.406;6.856;2022-07-12T09:41:52;3.73;;;3.40;;
3712;SDS011;1872;51.406;6.856;2022-07-12T09:44:20;3.77;;;3.47;;
3712;SDS011;1872;51.406;6.856;2022-07-12T09:46:47;3.90;;;3.57;;
3712;SDS011;1872;51.406;6.856;2022-07-12T09:49:13;3.67;;;3.37;;
3712;SDS011;1872;51.406;6.856;2022-07-12T09:51:41;2.73;;;2.53;;
3712;SDS011;1872;51.406;6.856;2022-07-12T09:54:11;2.73;;;2.60;;
3712;SDS011;1872;51.406;6.856;2022-07-12T09:56:46;3.60;;;3.40;;
3712;SDS011;1872;51.406;6.856;2022-07-12T09:59:14;3.50;;;3.20;;
3712;SDS011;1872;51.406;6.856;2022-07-12T10:01:45;3.40;;;3.10;;
3712;SDS011;1872;51.406;6.856;2022-07-12T10:04:11;3.00;;;2.80;;
3712;SDS011;1872;51.406;6.856;2022-07-12T10:06:40;3.00;;;2.80;;
3712;SDS011;1872;51.406;6.856;2022-07-12T10:09:06;3.03;;;2.60;;
3712;SDS011;1872;51.406;6.856;2022-07-12T10:11:32;3.00;;;2.80;;
3712;SDS011;1872;51.406;6.856;2022-07-12T10:13:58;3.20;;;3.00;;
3712;SDS011;1872;51.406;6.856;2022-07-12T10:16:25;3.50;;;3.20;;
3712;SDS011;1872;51.406;6.856;2022-07-12T10:22:06;2.93;;;2.70;;
3712;SDS011;1872;51.406;6.856;2022-07-12T10:24:44;3.70;;;2.70;;
3712;SDS011;1872;51.406;6.856;2022-07-12T10:29:40;2.60;;;2.40;;
3712;SDS011;1872;51.406;6.856;2022-07-12T10:37:23;3.17;;;2.87;;
3712;SDS011;1872;51.406;6.856;2022-07-12T10:42:40;2.80;;;2.60;;
3712;SDS011;1872;51.406;6.856;2022-07-12T10:45:36;3.23;;;2.93;;
3712;SDS011;1872;51.406;6.856;2022-07-12T10:48:04;3.03;;;2.77;;
3712;SDS011;1872;51.406;6.856;2022-07-12T10:56:07;3.30;;;3.10;;
3712;SDS011;1872;51.406;6.856;2022-07-12T10:58:37;3.57;;;3.00;;
3712;SDS011;1872;51.406;6.856;2022-07-12T11:01:06;3.70;;;3.40;;
3712;SDS011;1872;51.406;6.856;2022-07-12T11:06:02;3.40;;;3.10;;
3712;SDS011;1872;51.406;6.856;2022-07-12T11:08:32;3.40;;;3.17;;
3712;SDS011;1872;51.406;6.856;2022-07-12T11:11:10;3.60;;;3.30;;
3712;SDS011;1872;51.406;6.856;2022-07-12T11:13:36;4.40;;;3.00;;
3712;SDS011;1872;51.406;6.856;2022-07-12T11:16:02;4.23;;;3.93;;
3712;SDS011;1872;51.406;6.856;2022-07-12T11:18:29;3.43;;;3.13;;
3712;SDS011;1872;51.406;6.856;2022-07-12T11:20:56;3.67;;;3.37;;
3712;SDS011;1872;51.406;6.856;2022-07-12T11:23:26;3.03;;;2.80;;
3712;SDS011;1872;51.406;6.856;2022-07-12T11:25:54;2.93;;;2.73;;
3712;SDS011;1872;51.406;6.856;2022-07-12T11:28:21;3.90;;;3.60;;
3712;SDS011;1872;51.406;6.856;2022-07-12T11:30:51;3.27;;;2.97;;
3712;SDS011;1872;51.406;6.856;2022-07-12T11:33:25;3.70;;;3.40;;
3712;SDS011;1872;51.406;6.856;2022-07-12T11:35:57;4.40;;;3.30;;
3712;SDS011;1872;51.406;6.856;2022-07-12T11:38:26;3.50;;;3.30;;
3712;SDS011;1872;51.406;6.856;2022-07-12T11:40:57;3.20;;;3.00;;
3712;SDS011;1872;51.406;6.856;2022-07-12T11:43:24;3.97;;;3.67;;
3712;SDS011;1872;51.406;6.856;2022-07-12T11:45:51;3.63;;;3.33;;
3712;SDS011;1872;51.406;6.856;2022-07-12T11:48:18;3.57;;;3.27;;
3712;SDS011;1872;51.406;6.856;2022-07-12T11:50:44;3.97;;;3.60;;
3712;SDS011;1872;51.406;6.856;2022-07-12T11:53:14;3.80;;;3.50;;
3712;SDS011;1872;51.406;6.856;2022-07-12T11:55:47;4.40;;;4.00;;
3712;SDS011;1872;51.406;6.856;2022-07-12T11:58:14;3.80;;;3.50;;
3712;SDS011;1872;51.406;6.856;2022-07-12T12:00:43;4.00;;;3.70;;
3712;SDS011;1872;51.406;6.856;2022-07-12T12:03:11;4.47;;;4.10;;
3712;SDS011;1872;51.406;6.856;2022-07-12T12:05:37;4.17;;;3.87;;
3712;SDS011;1872;51.406;6.856;2022-07-12T12:08:04;4.00;;;3.70;;
3712;SDS011;1872;51.406;6.856;2022-07-12T12:10:31;4.30;;;3.57;;
3712;SDS011;1872;51.406;6.856;2022-07-12T12:12:57;4.07;;;3.77;;
3712;SDS011;1872;51.406;6.856;2022-07-12T12:15:25;3.77;;;3.47;;
3712;SDS011;1872;51.406;6.856;2022-07-12T12:18:00;3.97;;;3.63;;
3712;SDS011;1872;51.406;6.856;2022-07-12T12:20:28;3.87;;;3.47;;
3712;SDS011;1872;51.406;6.856;2022-07-12T12:23:18;3.63;;;3.33;;
3712;SDS011;1872;51.406;6.856;2022-07-12T12:25:45;3.40;;;3.13;;
3712;SDS011;1872;51.406;6.856;2022-07-12T12:28:11;4.73;;;3.33;;
3712;SDS011;1872;51.406;6.856;2022-07-12T12:33:35;3.83;;;3.53;;
3712;SDS011;1872;51.406;6.856;2022-07-12T12:36:12;3.90;;;3.60;;
3712;SDS011;1872;51.406;6.856;2022-07-12T12:38:41;5.47;;;4.40;;
3712;SDS011;1872;51.406;6.856;2022-07-12T12:41:07;5.57;;;5.07;;
3712;SDS011;1872;51.406;6.856;2022-07-12T12:43:34;5.50;;;4.57;;
3712;SDS011;1872;51.406;6.856;2022-07-12T12:46:00;5.37;;;4.73;;
3712;SDS011;1872;51.406;6.856;2022-07-12T12:48:26;5.33;;;4.53;;
3712;SDS011;1872;51.406;6.856;2022-07-12T12:51:09;4.10;;;3.80;;
3712;SDS011;1872;51.406;6.856;2022-07-12T12:53:36;4.70;;;4.30;;
3712;SDS011;1872;51.406;6.856;2022-07-12T12:56:12;5.40;;;4.90;;
3712;SDS011;1872;51.406;6.856;2022-07-12T12:58:40;4.60;;;4.20;;
3712;SDS011;1872;51.406;6.856;2022-07-12T13:01:06;4.40;;;4.00;;
3712;SDS011;1872;51.406;6.856;2022-07-12T13:03:36;4.50;;;4.10;;
3712;SDS011;1872;51.406;6.856;2022-07-12T13:06:02;3.77;;;3.47;;
3712;SDS011;1872;51.406;6.856;2022-07-12T13:08:30;4.73;;;4.33;;
3712;SDS011;1872;51.406;6.856;2022-07-12T13:10:55;4.93;;;4.43;;
3712;SDS011;1872;51.406;6.856;2022-07-12T13:13:53;5.07;;;4.30;;
3712;SDS011;1872;51.406;6.856;2022-07-12T13:16:21;4.83;;;4.43;;
3712;SDS011;1872;51.406;6.856;2022-07-12T13:18:47;4.43;;;4.00;;
3712;SDS011;1872;51.406;6.856;2022-07-12T13:21:13;5.30;;;4.20;;
3712;SDS011;1872;51.406;6.856;2022-07-12T13:23:38;4.87;;;4.47;;
3712;SDS011;1872;51.406;6.856;2022-07-12T13:26:04;5.70;;;4.47;;
3712;SDS011;1872;51.406;6.856;2022-07-12T13:28:30;4.27;;;3.90;;
3712;SDS011;1872;51.406;6.856;2022-07-12T13:30:57;5.37;;;4.87;;
3712;SDS011;1872;51.406;6.856;2022-07-12T13:33:23;4.40;;;4.00;;
3712;SDS011;1872;51.406;6.856;2022-07-12T13:35:49;4.00;;;3.70;;
3712;SDS011;1872;51.406;6.856;2022-07-12T13:38:15;4.67;;;4.27;;
3712;SDS011;1872;51.406;6.856;2022-07-12T13:40:40;4.67;;;4.30;;
3712;SDS011;1872;51.406;6.856;2022-07-12T13:43:06;4.83;;;4.20;;
3712;SDS011;1872;51.406;6.856;2022-07-12T13:45:32;4.77;;;4.40;;
3712;SDS011;1872;51.406;6.856;2022-07-12T13:47:59;4.93;;;4.53;;
3712;SDS011;1872;51.406;6.856;2022-07-12T13:50:26;4.73;;;4.30;;
3712;SDS011;1872;51.406;6.856;2022-07-12T13:52:51;4.67;;;4.23;;
3712;SDS011;1872;51.406;6.856;2022-07-12T13:55:19;4.90;;;4.50;;
3712;SDS011;1872;51.406;6.856;2022-07-12T13:57:45;5.77;;;4.70;;
3712;SDS011;1872;51.406;6.856;2022-07-12T14:00:12;6.47;;;4.40;;
3712;SDS011;1872;51.406;6.856;2022-07-12T14:02:41;5.03;;;4.23;;
3712;SDS011;1872;51.406;6.856;2022-07-12T14:05:09;9.90;;;4.97;;
3712;SDS011;1872;51.406;6.856;2022-07-12T14:07:35;4.53;;;4.13;;
3712;SDS011;1872;51.406;6.856;2022-07-12T14:10:02;4.20;;;3.90;;
3712;SDS011;1872;51.406;6.856;2022-07-12T14:12:28;4.43;;;4.00;;
3712;SDS011;1872;51.406;6.856;2022-07-12T14:14:53;4.87;;;4.07;;
3712;SDS011;1872;51.406;6.856;2022-07-12T14:17:40;5.20;;;4.70;;
3712;SDS011;1872;51.406;6.856;2022-07-12T14:20:08;4.63;;;3.90;;
3712;SDS011;1872;51.406;6.856;2022-07-12T14:22:35;4.00;;;3.60;;
3712;SDS011;1872;51.406;6.856;2022-07-12T14:25:07;4.60;;;4.20;;
3712;SDS011;1872;51.406;6.856;2022-07-12T14:27:33;4.40;;;4.00;;
3712;SDS011;1872;51.406;6.856;2022-07-12T14:30:00;4.50;;;4.10;;
3712;SDS011;1872;51.406;6.856;2022-07-12T14:32:26;4.50;;;4.20;;
3712;SDS011;1872;51.406;6.856;2022-07-12T14:35:00;5.77;;;4.20;;
3712;SDS011;1872;51.406;6.856;2022-07-12T14:37:26;5.03;;;4.53;;
3712;SDS011;1872;51.406;6.856;2022-07-12T14:39:51;4.90;;;4.07;;
3712;SDS011;1872;51.406;6.856;2022-07-12T14:42:17;4.60;;;4.20;;
3712;SDS011;1872;51.406;6.856;2022-07-12T14:44:43;4.40;;;4.10;;
3712;SDS011;1872;51.406;6.856;2022-07-12T14:47:09;4.63;;;4.23;;
3712;SDS011;1872;51.406;6.856;2022-07-12T14:49:35;4.17;;;3.87;;
3712;SDS011;1872;51.406;6.856;2022-07-12T14:52:02;4.70;;;4.10;;
3712;SDS011;1872;51.406;6.856;2022-07-12T14:54:30;4.80;;;4.17;;
3712;SDS011;1872;51.406;6.856;2022-07-12T14:56:56;4.90;;;4.50;;
3712;SDS011;1872;51.406;6.856;2022-07-12T14:59:21;4.80;;;4.40;;
3712;SDS011;1872;51.406;6.856;2022-07-12T15:01:47;4.83;;;4.43;;
3712;SDS011;1872;51.406;6.856;2022-07-12T15:04:14;4.57;;;4.17;;
3712;SDS011;1872;51.406;6.856;2022-07-12T15:06:39;4.83;;;4.43;;
3712;SDS011;1872;51.406;6.856;2022-07-12T15:09:05;4.70;;;4.30;;
3712;SDS011;1872;51.406;6.856;2022-07-12T15:11:31;5.03;;;4.63;;
3712;SDS011;1872;51.406;6.856;2022-07-12T15:13:57;7.00;;;4.00;;
3712;SDS011;1872;51.406;6.856;2022-07-12T15:16:23;5.83;;;4.60;;
3712;SDS011;1872;51.406;6.856;2022-07-12T15:18:48;4.40;;;4.00;;
3712;SDS011;1872;51.406;6.856;2022-07-12T15:21:14;5.23;;;4.50;;
3712;SDS011;1872;51.406;6.856;2022-07-12T15:23:41;4.70;;;4.20;;
3712;SDS011;1872;51.406;6.856;2022-07-12T15:26:06;5.33;;;4.60;;
3712;SDS011;1872;51.406;6.856;2022-07-12T15:28:32;5.73;;;4.87;;
3712;SDS011;1872;51.406;6.856;2022-07-12T15:31:00;4.13;;;3.83;;
3712;SDS011;1872;51.406;6.856;2022-07-12T15:33:25;4.63;;;4.23;;
3712;SDS011;1872;51.406;6.856;2022-07-12T15:35:53;4.60;;;4.27;;
3712;SDS011;1872;51.406;6.856;2022-07-12T15:38:19;4.47;;;4.17;;
3712;SDS011;1872;51.406;6.856;2022-07-12T15:40:45;5.60;;;4.00;;
3712;SDS011;1872;51.406;6.856;2022-07-12T15:43:11;5.33;;;4.10;;
3712;SDS011;1872;51.406;6.856;2022-07-12T15:45:37;4.30;;;3.90;;
3712;SDS011;1872;51.406;6.856;2022-07-12T15:48:03;4.80;;;4.40;;